sensor_id;sensor_type;location;lat;lon;timestamp;temperature;humidity
25933;DHT22;13731;51.166;4.474;2023-05-29T00:01:29;14.10;99.90
25933;DHT22;13731;51.166;4.474;2023-05-29T00:03:57;14.10;99.90
25933;DHT22;13731;51.166;4.474;2023-05-29T00:06:23;13.90;99.90
25933;DHT22;13731;51.166;4.474;2023-05-29T00:08:49;13.90;1.00
25933;DHT22;13731;51.166;4.474;2023-05-29T00:11:14;13.80;1.00
25933;DHT22;13731;51.166;4.474;2023-05-29T00:13:40;13.80;65.50
25933;DHT22;13731;51.166;4.474;2023-05-29T00:16:06;13.70;99.90
25933;DHT22;13731;51.166;4.474;2023-05-29T00:18:32;13.80;91.90
25933;DHT22;13731;51.166;4.474;2023-05-29T00:20:57;13.70;99.90
25933;DHT22;13731;51.166;4.474;2023-05-29T00:23:23;13.80;1.00
25933;DHT22;13731;51.166;4.474;2023-05-29T00:25:49;13.70;62.50
25933;DHT22;13731;51.166;4.474;2023-05-29T00:28:14;13.70;99.90
25933;DHT22;13731;51.166;4.474;2023-05-29T00:30:41;13.60;99.90
25933;DHT22;13731;51.166;4.474;2023-05-29T00:33:06;13.40;1.00
25933;DHT22;13731;51.166;4.474;2023-05-29T00:35:33;13.50;1.00
25933;DHT22;13731;51.166;4.474;2023-05-29T00:37:59;13.40;1.00
25933;DHT22;13731;51.166;4.474;2023-05-29T00:40:25;13.30;1.00
25933;DHT22;13731;51.166;4.474;2023-05-29T00:42:51;13.20;99.90
25933;DHT22;13731;51.166;4.474;2023-05-29T00:45:16;13.20;99.90
25933;DHT22;13731;51.166;4.474;2023-05-29T00:47:42;13.30;1.00
25933;DHT22;13731;51.166;4.474;2023-05-29T00:50:08;13.30;1.00
25933;DHT22;13731;51.166;4.474;2023-05-29T00:52:34;13.30;99.90
25933;DHT22;13731;51.166;4.474;2023-05-29T00:55:00;13.30;1.00
25933;DHT22;13731;51.166;4.474;2023-05-29T00:57:28;13.10;1.00
25933;DHT22;13731;51.166;4.474;2023-05-29T00:59:56;13.00;24.20
25933;DHT22;13731;51.166;4.474;2023-05-29T01:02:22;13.10;1.00
25933;DHT22;13731;51.166;4.474;2023-05-29T01:04:48;12.90;99.90
25933;DHT22;13731;51.166;4.474;2023-05-29T01:07:14;12.80;1.00
25933;DHT22;13731;51.166;4.474;2023-05-29T01:09:40;12.70;99.90
25933;DHT22;13731;51.166;4.474;2023-05-29T01:13:08;12.70;99.90
25933;DHT22;13731;51.166;4.474;2023-05-29T01:15:10;12.70;1.00
25933;DHT22;13731;51.166;4.474;2023-05-29T01:28:42;12.60;1.00
25933;DHT22;13731;51.166;4.474;2023-05-29T01:31:08;12.40;1.00
25933;DHT22;13731;51.166;4.474;2023-05-29T01:33:38;12.30;1.00
25933;DHT22;13731;51.166;4.474;2023-05-29T01:36:04;12.30;1.00
25933;DHT22;13731;51.166;4.474;2023-05-29T01:38:31;12.30;1.00
25933;DHT22;13731;51.166;4.474;2023-05-29T01:40:57;12.40;99.90
25933;DHT22;13731;51.166;4.474;2023-05-29T01:43:23;12.30;99.90
25933;DHT22;13731;51.166;4.474;2023-05-29T01:45:48;12.30;99.90
25933;DHT22;13731;51.166;4.474;2023-05-29T01:48:15;12.30;99.90
25933;DHT22;13731;51.166;4.474;2023-05-29T01:50:41;12.30;1.00
25933;DHT22;13731;51.166;4.474;2023-05-29T01:53:09;12.20;1.00
25933;DHT22;13731;51.166;4.474;2023-05-29T01:55:35;12.10;97.50
25933;DHT22;13731;51.166;4.474;2023-05-29T01:58:01;12.00;70.40
25933;DHT22;13731;51.166;4.474;2023-05-29T02:00:27;12.10;56.20
25933;DHT22;13731;51.166;4.474;2023-05-29T02:02:55;12.10;1.00
25933;DHT22;13731;51.166;4.474;2023-05-29T02:05:20;12.00;1.00
25933;DHT22;13731;51.166;4.474;2023-05-29T02:07:47;11.90;1.00
25933;DHT22;13731;51.166;4.474;2023-05-29T02:10:13;11.90;1.00
25933;DHT22;13731;51.166;4.474;2023-05-29T02:12:38;11.80;1.00
25933;DHT22;13731;51.166;4.474;2023-05-29T02:15:04;11.80;1.00
25933;DHT22;13731;51.166;4.474;2023-05-29T02:17:30;11.80;1.00
25933;DHT22;13731;51.166;4.474;2023-05-29T02:19:56;11.80;1.00
25933;DHT22;13731;51.166;4.474;2023-05-29T02:22:22;11.70;1.00
25933;DHT22;13731;51.166;4.474;2023-05-29T02:24:47;11.60;99.90
25933;DHT22;13731;51.166;4.474;2023-05-29T02:27:13;11.50;99.90
25933;DHT22;13731;51.166;4.474;2023-05-29T02:29:41;11.60;99.90
25933;DHT22;13731;51.166;4.474;2023-05-29T02:32:06;11.50;99.90
25933;DHT22;13731;51.166;4.474;2023-05-29T02:34:32;11.60;99.90
25933;DHT22;13731;51.166;4.474;2023-05-29T02:36:58;11.60;1.00
25933;DHT22;13731;51.166;4.474;2023-05-29T02:39:24;11.60;1.00
25933;DHT22;13731;51.166;4.474;2023-05-29T02:41:49;11.40;99.90
25933;DHT22;13731;51.166;4.474;2023-05-29T02:44:15;11.40;99.90
25933;DHT22;13731;51.166;4.474;2023-05-29T02:46:41;11.40;99.90
25933;DHT22;13731;51.166;4.474;2023-05-29T02:49:07;11.30;99.90
25933;DHT22;13731;51.166;4.474;2023-05-29T02:51:33;11.40;99.90
25933;DHT22;13731;51.166;4.474;2023-05-29T02:53:59;11.40;99.90
25933;DHT22;13731;51.166;4.474;2023-05-29T02:56:24;11.60;1.00
25933;DHT22;13731;51.166;4.474;2023-05-29T02:58:50;11.50;1.00
25933;DHT22;13731;51.166;4.474;2023-05-29T03:01:16;11.40;1.00
25933;DHT22;13731;51.166;4.474;2023-05-29T03:03:42;11.30;1.00
25933;DHT22;13731;51.166;4.474;2023-05-29T03:06:07;11.30;91.80
25933;DHT22;13731;51.166;4.474;2023-05-29T03:08:34;11.20;99.90
25933;DHT22;13731;51.166;4.474;2023-05-29T03:11:00;11.10;99.90
25933;DHT22;13731;51.166;4.474;2023-05-29T03:13:26;11.10;99.90
25933;DHT22;13731;51.166;4.474;2023-05-29T03:16:00;11.10;99.90
25933;DHT22;13731;51.166;4.474;2023-05-29T03:18:26;11.20;99.90
25933;DHT22;13731;51.166;4.474;2023-05-29T03:20:51;11.10;99.90
25933;DHT22;13731;51.166;4.474;2023-05-29T03:23:17;11.10;99.90
25933;DHT22;13731;51.166;4.474;2023-05-29T03:25:43;11.00;1.00
25933;DHT22;13731;51.166;4.474;2023-05-29T03:28:08;11.10;99.90
25933;DHT22;13731;51.166;4.474;2023-05-29T03:30:35;11.00;99.90
25933;DHT22;13731;51.166;4.474;2023-05-29T03:33:01;11.00;99.90
25933;DHT22;13731;51.166;4.474;2023-05-29T03:35:45;10.90;99.90
25933;DHT22;13731;51.166;4.474;2023-05-29T03:38:11;10.90;1.00
25933;DHT22;13731;51.166;4.474;2023-05-29T03:40:37;11.00;1.00
25933;DHT22;13731;51.166;4.474;2023-05-29T03:43:04;10.80;1.00
25933;DHT22;13731;51.166;4.474;2023-05-29T03:45:29;10.80;93.70
25933;DHT22;13731;51.166;4.474;2023-05-29T03:47:55;10.90;1.00
25933;DHT22;13731;51.166;4.474;2023-05-29T03:50:21;10.80;82.90
25933;DHT22;13731;51.166;4.474;2023-05-29T03:52:47;10.80;36.70
25933;DHT22;13731;51.166;4.474;2023-05-29T03:55:14;10.80;1.00
25933;DHT22;13731;51.166;4.474;2023-05-29T03:57:41;10.70;99.90
25933;DHT22;13731;51.166;4.474;2023-05-29T04:00:07;10.70;1.00
25933;DHT22;13731;51.166;4.474;2023-05-29T04:02:38;10.80;99.90
25933;DHT22;13731;51.166;4.474;2023-05-29T04:05:07;10.90;99.90
25933;DHT22;13731;51.166;4.474;2023-05-29T04:07:35;10.70;1.00
25933;DHT22;13731;51.166;4.474;2023-05-29T04:10:02;10.70;1.00
25933;DHT22;13731;51.166;4.474;2023-05-29T04:12:28;10.60;1.00
25933;DHT22;13731;51.166;4.474;2023-05-29T04:14:54;10.70;1.00
25933;DHT22;13731;51.166;4.474;2023-05-29T04:17:20;10.70;1.00
25933;DHT22;13731;51.166;4.474;2023-05-29T04:19:46;10.70;1.00
25933;DHT22;13731;51.166;4.474;2023-05-29T04:22:11;10.80;1.00
25933;DHT22;13731;51.166;4.474;2023-05-29T04:24:38;11.00;99.90
25933;DHT22;13731;51.166;4.474;2023-05-29T04:27:03;11.10;1.00
25933;DHT22;13731;51.166;4.474;2023-05-29T04:29:30;11.20;99.90
25933;DHT22;13731;51.166;4.474;2023-05-29T04:31:57;10.90;1.00
25933;DHT22;13731;51.166;4.474;2023-05-29T04:34:23;10.90;99.90
25933;DHT22;13731;51.166;4.474;2023-05-29T04:36:49;10.90;99.90
25933;DHT22;13731;51.166;4.474;2023-05-29T04:39:15;10.90;99.90
25933;DHT22;13731;51.166;4.474;2023-05-29T04:41:41;10.90;1.00
25933;DHT22;13731;51.166;4.474;2023-05-29T04:44:10;10.90;99.90
25933;DHT22;13731;51.166;4.474;2023-05-29T04:46:46;10.90;1.00
25933;DHT22;13731;51.166;4.474;2023-05-29T04:49:13;11.00;99.90
25933;DHT22;13731;51.166;4.474;2023-05-29T04:51:39;10.90;99.90
25933;DHT22;13731;51.166;4.474;2023-05-29T04:54:08;10.80;1.00
25933;DHT22;13731;51.166;4.474;2023-05-29T04:56:38;10.70;99.90
25933;DHT22;13731;51.166;4.474;2023-05-29T04:59:08;10.90;13.60
25933;DHT22;13731;51.166;4.474;2023-05-29T05:01:34;11.00;99.90
25933;DHT22;13731;51.166;4.474;2023-05-29T05:04:00;11.00;99.90
25933;DHT22;13731;51.166;4.474;2023-05-29T05:06:26;10.90;99.90
25933;DHT22;13731;51.166;4.474;2023-05-29T05:08:52;10.90;1.00
25933;DHT22;13731;51.166;4.474;2023-05-29T05:11:20;10.90;1.00
25933;DHT22;13731;51.166;4.474;2023-05-29T05:13:46;11.00;1.00
25933;DHT22;13731;51.166;4.474;2023-05-29T05:16:12;11.10;98.60
25933;DHT22;13731;51.166;4.474;2023-05-29T05:18:39;11.10;1.00
25933;DHT22;13731;51.166;4.474;2023-05-29T05:21:07;11.20;1.00
25933;DHT22;13731;51.166;4.474;2023-05-29T05:23:34;11.20;1.00
25933;DHT22;13731;51.166;4.474;2023-05-29T05:26:01;11.30;1.00
25933;DHT22;13731;51.166;4.474;2023-05-29T05:28:27;11.30;99.90
25933;DHT22;13731;51.166;4.474;2023-05-29T05:30:53;11.40;99.90
25933;DHT22;13731;51.166;4.474;2023-05-29T05:33:18;11.40;99.90
25933;DHT22;13731;51.166;4.474;2023-05-29T05:35:44;11.50;99.90
25933;DHT22;13731;51.166;4.474;2023-05-29T05:38:10;11.60;99.90
25933;DHT22;13731;51.166;4.474;2023-05-29T05:40:36;11.70;1.00
25933;DHT22;13731;51.166;4.474;2023-05-29T05:43:12;11.80;1.00
25933;DHT22;13731;51.166;4.474;2023-05-29T05:45:57;11.80;99.90
25933;DHT22;13731;51.166;4.474;2023-05-29T05:48:24;11.80;99.90
25933;DHT22;13731;51.166;4.474;2023-05-29T05:50:49;11.90;99.90
25933;DHT22;13731;51.166;4.474;2023-05-29T05:53:16;12.00;1.00
25933;DHT22;13731;51.166;4.474;2023-05-29T05:55:46;12.10;1.00
25933;DHT22;13731;51.166;4.474;2023-05-29T05:58:12;12.00;1.00
25933;DHT22;13731;51.166;4.474;2023-05-29T06:00:39;12.10;1.00
25933;DHT22;13731;51.166;4.474;2023-05-29T06:03:05;12.30;99.90
25933;DHT22;13731;51.166;4.474;2023-05-29T06:05:48;12.20;99.90
25933;DHT22;13731;51.166;4.474;2023-05-29T06:08:16;12.30;99.90
25933;DHT22;13731;51.166;4.474;2023-05-29T06:10:41;12.20;99.90
25933;DHT22;13731;51.166;4.474;2023-05-29T06:13:07;12.30;99.90
25933;DHT22;13731;51.166;4.474;2023-05-29T06:15:43;12.30;99.90
25933;DHT22;13731;51.166;4.474;2023-05-29T06:18:08;12.60;1.00
25933;DHT22;13731;51.166;4.474;2023-05-29T06:20:34;12.80;1.00
25933;DHT22;13731;51.166;4.474;2023-05-29T06:23:02;12.90;1.00
25933;DHT22;13731;51.166;4.474;2023-05-29T06:25:29;12.90;1.00
25933;DHT22;13731;51.166;4.474;2023-05-29T06:28:01;12.90;99.90
25933;DHT22;13731;51.166;4.474;2023-05-29T06:30:27;12.70;1.00
25933;DHT22;13731;51.166;4.474;2023-05-29T06:32:53;12.80;1.00
25933;DHT22;13731;51.166;4.474;2023-05-29T06:35:25;12.90;1.00
25933;DHT22;13731;51.166;4.474;2023-05-29T06:37:50;13.00;99.90
25933;DHT22;13731;51.166;4.474;2023-05-29T06:40:16;13.20;99.90
25933;DHT22;13731;51.166;4.474;2023-05-29T06:42:43;13.40;99.90
25933;DHT22;13731;51.166;4.474;2023-05-29T06:45:15;13.50;99.90
25933;DHT22;13731;51.166;4.474;2023-05-29T06:47:44;13.60;1.00
25933;DHT22;13731;51.166;4.474;2023-05-29T06:50:10;13.40;52.40
25933;DHT22;13731;51.166;4.474;2023-05-29T06:52:37;13.40;99.90
25933;DHT22;13731;51.166;4.474;2023-05-29T06:55:15;13.40;99.90
25933;DHT22;13731;51.166;4.474;2023-05-29T06:57:41;13.80;1.00
25933;DHT22;13731;51.166;4.474;2023-05-29T07:00:07;13.80;1.00
25933;DHT22;13731;51.166;4.474;2023-05-29T07:02:40;13.80;1.00
25933;DHT22;13731;51.166;4.474;2023-05-29T07:05:06;13.70;1.00
25933;DHT22;13731;51.166;4.474;2023-05-29T07:07:31;13.70;1.00
25933;DHT22;13731;51.166;4.474;2023-05-29T07:09:57;13.70;1.00
25933;DHT22;13731;51.166;4.474;2023-05-29T07:12:23;13.50;1.00
25933;DHT22;13731;51.166;4.474;2023-05-29T07:14:49;13.50;1.00
25933;DHT22;13731;51.166;4.474;2023-05-29T07:17:15;13.70;1.00
25933;DHT22;13731;51.166;4.474;2023-05-29T07:19:41;13.70;1.00
25933;DHT22;13731;51.166;4.474;2023-05-29T07:22:07;13.90;1.00
25933;DHT22;13731;51.166;4.474;2023-05-29T07:24:33;13.90;1.00
25933;DHT22;13731;51.166;4.474;2023-05-29T07:27:00;14.00;1.00
25933;DHT22;13731;51.166;4.474;2023-05-29T07:29:26;13.90;1.00
25933;DHT22;13731;51.166;4.474;2023-05-29T07:31:53;13.90;1.00
25933;DHT22;13731;51.166;4.474;2023-05-29T07:34:23;14.00;1.00
25933;DHT22;13731;51.166;4.474;2023-05-29T07:37:22;13.80;1.00
25933;DHT22;13731;51.166;4.474;2023-05-29T07:39:42;13.90;1.00
25933;DHT22;13731;51.166;4.474;2023-05-29T07:42:29;14.20;1.00
25933;DHT22;13731;51.166;4.474;2023-05-29T07:44:54;14.40;1.00
25933;DHT22;13731;51.166;4.474;2023-05-29T07:47:22;14.50;1.00
25933;DHT22;13731;51.166;4.474;2023-05-29T07:49:48;14.60;1.00
25933;DHT22;13731;51.166;4.474;2023-05-29T07:52:13;14.80;99.90
25933;DHT22;13731;51.166;4.474;2023-05-29T07:54:40;15.00;99.90
25933;DHT22;13731;51.166;4.474;2023-05-29T07:57:08;15.00;99.90
25933;DHT22;13731;51.166;4.474;2023-05-29T07:59:37;14.80;99.90
25933;DHT22;13731;51.166;4.474;2023-05-29T08:02:04;14.90;99.90
25933;DHT22;13731;51.166;4.474;2023-05-29T08:04:44;14.90;99.90
25933;DHT22;13731;51.166;4.474;2023-05-29T08:07:10;15.00;99.90
25933;DHT22;13731;51.166;4.474;2023-05-29T08:09:35;14.90;99.90
25933;DHT22;13731;51.166;4.474;2023-05-29T08:12:02;15.00;99.90
25933;DHT22;13731;51.166;4.474;2023-05-29T08:14:29;15.00;99.90
25933;DHT22;13731;51.166;4.474;2023-05-29T08:16:55;15.10;99.90
25933;DHT22;13731;51.166;4.474;2023-05-29T08:19:21;15.40;99.90
25933;DHT22;13731;51.166;4.474;2023-05-29T08:21:47;15.40;99.90
25933;DHT22;13731;51.166;4.474;2023-05-29T08:24:12;15.60;99.90
25933;DHT22;13731;51.166;4.474;2023-05-29T08:26:38;15.70;99.90
25933;DHT22;13731;51.166;4.474;2023-05-29T08:29:04;15.70;99.90
25933;DHT22;13731;51.166;4.474;2023-05-29T08:31:29;15.70;99.90
25933;DHT22;13731;51.166;4.474;2023-05-29T08:33:55;15.60;99.90
25933;DHT22;13731;51.166;4.474;2023-05-29T08:36:21;15.60;99.90
25933;DHT22;13731;51.166;4.474;2023-05-29T08:38:47;15.70;99.90
25933;DHT22;13731;51.166;4.474;2023-05-29T08:43:58;16.00;99.90
25933;DHT22;13731;51.166;4.474;2023-05-29T08:46:25;16.10;99.90
25933;DHT22;13731;51.166;4.474;2023-05-29T08:48:51;16.30;99.90
25933;DHT22;13731;51.166;4.474;2023-05-29T08:51:21;16.50;99.90
25933;DHT22;13731;51.166;4.474;2023-05-29T08:53:48;16.90;99.90
25933;DHT22;13731;51.166;4.474;2023-05-29T08:56:14;16.70;99.90
25933;DHT22;13731;51.166;4.474;2023-05-29T08:58:40;17.00;99.90
25933;DHT22;13731;51.166;4.474;2023-05-29T09:01:05;17.10;99.90
25933;DHT22;13731;51.166;4.474;2023-05-29T09:03:31;16.90;99.90
25933;DHT22;13731;51.166;4.474;2023-05-29T09:05:58;16.80;99.90
25933;DHT22;13731;51.166;4.474;2023-05-29T09:08:24;17.10;99.90
25933;DHT22;13731;51.166;4.474;2023-05-29T09:10:51;17.00;99.90
25933;DHT22;13731;51.166;4.474;2023-05-29T09:13:17;17.10;99.90
25933;DHT22;13731;51.166;4.474;2023-05-29T09:15:43;17.20;99.90
25933;DHT22;13731;51.166;4.474;2023-05-29T09:18:09;17.20;95.50
25933;DHT22;13731;51.166;4.474;2023-05-29T09:20:34;17.20;99.90
25933;DHT22;13731;51.166;4.474;2023-05-29T09:23:01;17.00;95.90
25933;DHT22;13731;51.166;4.474;2023-05-29T09:25:28;17.20;99.00
25933;DHT22;13731;51.166;4.474;2023-05-29T09:28:17;17.50;83.40
25933;DHT22;13731;51.166;4.474;2023-05-29T09:30:43;17.30;83.70
25933;DHT22;13731;51.166;4.474;2023-05-29T09:33:10;17.30;82.80
25933;DHT22;13731;51.166;4.474;2023-05-29T09:38:02;17.50;78.30
25933;DHT22;13731;51.166;4.474;2023-05-29T09:40:31;17.60;69.30
25933;DHT22;13731;51.166;4.474;2023-05-29T09:43:04;17.90;61.10
25933;DHT22;13731;51.166;4.474;2023-05-29T09:45:30;18.10;60.30
25933;DHT22;13731;51.166;4.474;2023-05-29T09:47:56;18.10;40.00
25933;DHT22;13731;51.166;4.474;2023-05-29T09:50:25;17.90;41.90
25933;DHT22;13731;51.166;4.474;2023-05-29T09:52:51;18.20;31.20
25933;DHT22;13731;51.166;4.474;2023-05-29T09:55:19;18.20;26.90
25933;DHT22;13731;51.166;4.474;2023-05-29T09:57:46;18.40;31.20
25933;DHT22;13731;51.166;4.474;2023-05-29T10:00:16;18.40;29.10
25933;DHT22;13731;51.166;4.474;2023-05-29T10:02:42;18.40;22.90
25933;DHT22;13731;51.166;4.474;2023-05-29T10:05:09;18.50;20.20
25933;DHT22;13731;51.166;4.474;2023-05-29T10:07:36;18.80;14.40
25933;DHT22;13731;51.166;4.474;2023-05-29T10:10:05;19.60;3.30
25933;DHT22;13731;51.166;4.474;2023-05-29T10:12:36;20.70;1.00
25933;DHT22;13731;51.166;4.474;2023-05-29T10:15:02;21.80;1.00
25933;DHT22;13731;51.166;4.474;2023-05-29T10:17:31;21.50;1.00
25933;DHT22;13731;51.166;4.474;2023-05-29T10:19:58;21.50;1.00
25933;DHT22;13731;51.166;4.474;2023-05-29T10:22:26;22.10;1.00
25933;DHT22;13731;51.166;4.474;2023-05-29T10:24:53;21.60;1.00
25933;DHT22;13731;51.166;4.474;2023-05-29T10:27:19;21.70;1.00
25933;DHT22;13731;51.166;4.474;2023-05-29T10:29:56;22.10;1.00
25933;DHT22;13731;51.166;4.474;2023-05-29T10:35:18;22.30;1.00
25933;DHT22;13731;51.166;4.474;2023-05-29T10:37:52;22.30;1.00
25933;DHT22;13731;51.166;4.474;2023-05-29T10:40:24;22.30;1.00
25933;DHT22;13731;51.166;4.474;2023-05-29T10:42:51;22.90;1.00
25933;DHT22;13731;51.166;4.474;2023-05-29T10:47:55;24.20;1.00
25933;DHT22;13731;51.166;4.474;2023-05-29T10:53:08;24.70;1.00
25933;DHT22;13731;51.166;4.474;2023-05-29T10:55:38;24.30;1.00
25933;DHT22;13731;51.166;4.474;2023-05-29T10:58:08;24.00;1.00
25933;DHT22;13731;51.166;4.474;2023-05-29T11:00:39;24.20;1.00
25933;DHT22;13731;51.166;4.474;2023-05-29T11:03:07;25.00;1.00
25933;DHT22;13731;51.166;4.474;2023-05-29T11:05:33;25.80;1.00
25933;DHT22;13731;51.166;4.474;2023-05-29T11:07:59;25.20;1.00
25933;DHT22;13731;51.166;4.474;2023-05-29T11:10:45;25.50;1.00
25933;DHT22;13731;51.166;4.474;2023-05-29T11:13:27;26.40;1.00
25933;DHT22;13731;51.166;4.474;2023-05-29T11:16:19;26.40;1.00
25933;DHT22;13731;51.166;4.474;2023-05-29T11:18:46;26.10;1.00
25933;DHT22;13731;51.166;4.474;2023-05-29T11:21:29;25.80;1.00
25933;DHT22;13731;51.166;4.474;2023-05-29T11:23:57;25.50;1.00
25933;DHT22;13731;51.166;4.474;2023-05-29T11:26:25;26.10;1.00
25933;DHT22;13731;51.166;4.474;2023-05-29T11:28:51;25.50;1.00
25933;DHT22;13731;51.166;4.474;2023-05-29T11:31:17;25.40;1.00
25933;DHT22;13731;51.166;4.474;2023-05-29T11:33:47;26.00;1.00
25933;DHT22;13731;51.166;4.474;2023-05-29T11:36:13;27.50;1.00
25933;DHT22;13731;51.166;4.474;2023-05-29T11:38:39;28.20;1.00
25933;DHT22;13731;51.166;4.474;2023-05-29T11:41:05;28.40;1.00
25933;DHT22;13731;51.166;4.474;2023-05-29T11:43:30;26.80;1.00
25933;DHT22;13731;51.166;4.474;2023-05-29T11:45:56;27.40;1.00
25933;DHT22;13731;51.166;4.474;2023-05-29T11:48:22;26.40;1.00
25933;DHT22;13731;51.166;4.474;2023-05-29T11:50:49;26.10;1.00
25933;DHT22;13731;51.166;4.474;2023-05-29T11:53:15;26.40;1.00
25933;DHT22;13731;51.166;4.474;2023-05-29T11:55:40;26.70;1.00
25933;DHT22;13731;51.166;4.474;2023-05-29T11:58:07;27.00;1.00
25933;DHT22;13731;51.166;4.474;2023-05-29T12:00:34;26.90;1.00
25933;DHT22;13731;51.166;4.474;2023-05-29T12:03:00;26.70;1.00
25933;DHT22;13731;51.166;4.474;2023-05-29T12:05:47;28.40;1.00
25933;DHT22;13731;51.166;4.474;2023-05-29T12:08:23;28.50;1.00
25933;DHT22;13731;51.166;4.474;2023-05-29T12:10:51;29.00;1.00
25933;DHT22;13731;51.166;4.474;2023-05-29T12:13:19;29.30;1.00
25933;DHT22;13731;51.166;4.474;2023-05-29T12:15:45;27.50;1.00
25933;DHT22;13731;51.166;4.474;2023-05-29T12:18:12;28.70;1.00
25933;DHT22;13731;51.166;4.474;2023-05-29T12:20:37;29.10;1.00
25933;DHT22;13731;51.166;4.474;2023-05-29T12:23:03;30.70;1.00
25933;DHT22;13731;51.166;4.474;2023-05-29T12:25:30;31.60;1.00
25933;DHT22;13731;51.166;4.474;2023-05-29T12:27:56;30.50;1.00
25933;DHT22;13731;51.166;4.474;2023-05-29T12:30:23;29.90;1.00
25933;DHT22;13731;51.166;4.474;2023-05-29T12:32:50;29.40;1.00
25933;DHT22;13731;51.166;4.474;2023-05-29T12:40:18;29.10;1.00
25933;DHT22;13731;51.166;4.474;2023-05-29T12:42:45;28.80;1.00
25933;DHT22;13731;51.166;4.474;2023-05-29T12:45:11;29.00;1.00
25933;DHT22;13731;51.166;4.474;2023-05-29T12:47:37;27.90;1.00
25933;DHT22;13731;51.166;4.474;2023-05-29T12:53:03;26.80;1.00
25933;DHT22;13731;51.166;4.474;2023-05-29T12:55:31;25.90;1.00
25933;DHT22;13731;51.166;4.474;2023-05-29T12:57:58;27.10;1.00
25933;DHT22;13731;51.166;4.474;2023-05-29T13:00:25;28.80;1.00
25933;DHT22;13731;51.166;4.474;2023-05-29T13:02:51;28.30;1.00
25933;DHT22;13731;51.166;4.474;2023-05-29T13:05:16;28.60;1.00
25933;DHT22;13731;51.166;4.474;2023-05-29T13:07:47;28.00;1.00
25933;DHT22;13731;51.166;4.474;2023-05-29T13:10:13;28.00;1.00
25933;DHT22;13731;51.166;4.474;2023-05-29T13:12:39;28.70;1.00
25933;DHT22;13731;51.166;4.474;2023-05-29T13:15:05;28.80;1.00
25933;DHT22;13731;51.166;4.474;2023-05-29T13:17:31;27.70;1.00
25933;DHT22;13731;51.166;4.474;2023-05-29T13:19:57;28.80;1.00
25933;DHT22;13731;51.166;4.474;2023-05-29T13:22:22;29.00;1.00
25933;DHT22;13731;51.166;4.474;2023-05-29T13:24:48;28.50;1.00
25933;DHT22;13731;51.166;4.474;2023-05-29T13:27:14;29.50;1.00
25933;DHT22;13731;51.166;4.474;2023-05-29T13:29:44;28.60;1.00
25933;DHT22;13731;51.166;4.474;2023-05-29T13:32:10;27.80;1.00
25933;DHT22;13731;51.166;4.474;2023-05-29T13:34:35;28.20;1.00
25933;DHT22;13731;51.166;4.474;2023-05-29T13:37:01;28.90;1.00
25933;DHT22;13731;51.166;4.474;2023-05-29T13:39:27;28.50;1.00
25933;DHT22;13731;51.166;4.474;2023-05-29T13:41:53;27.40;1.00
25933;DHT22;13731;51.166;4.474;2023-05-29T13:44:19;27.70;1.00
25933;DHT22;13731;51.166;4.474;2023-05-29T13:46:45;28.00;1.00
25933;DHT22;13731;51.166;4.474;2023-05-29T13:49:11;27.30;1.00
25933;DHT22;13731;51.166;4.474;2023-05-29T13:51:37;27.20;1.00
25933;DHT22;13731;51.166;4.474;2023-05-29T13:54:03;27.10;1.00
25933;DHT22;13731;51.166;4.474;2023-05-29T13:56:29;27.10;1.00
25933;DHT22;13731;51.166;4.474;2023-05-29T13:58:55;27.80;1.00
25933;DHT22;13731;51.166;4.474;2023-05-29T14:01:20;28.50;1.00
25933;DHT22;13731;51.166;4.474;2023-05-29T14:03:47;29.20;1.00
25933;DHT22;13731;51.166;4.474;2023-05-29T14:06:12;29.10;1.00
25933;DHT22;13731;51.166;4.474;2023-05-29T14:08:38;28.80;1.00
25933;DHT22;13731;51.166;4.474;2023-05-29T14:11:04;29.60;1.00
25933;DHT22;13731;51.166;4.474;2023-05-29T14:13:29;28.50;1.00
25933;DHT22;13731;51.166;4.474;2023-05-29T14:15:58;27.60;1.00
25933;DHT22;13731;51.166;4.474;2023-05-29T14:18:23;27.40;1.00
25933;DHT22;13731;51.166;4.474;2023-05-29T14:20:49;27.60;1.00
25933;DHT22;13731;51.166;4.474;2023-05-29T14:23:16;27.40;1.00
25933;DHT22;13731;51.166;4.474;2023-05-29T14:25:42;27.60;1.00
25933;DHT22;13731;51.166;4.474;2023-05-29T14:28:08;27.30;1.00
25933;DHT22;13731;51.166;4.474;2023-05-29T14:30:35;26.80;1.00
25933;DHT22;13731;51.166;4.474;2023-05-29T14:33:00;26.70;1.00
25933;DHT22;13731;51.166;4.474;2023-05-29T14:35:26;27.00;1.00
25933;DHT22;13731;51.166;4.474;2023-05-29T14:37:52;26.10;1.00
25933;DHT22;13731;51.166;4.474;2023-05-29T14:40:17;25.40;1.00
25933;DHT22;13731;51.166;4.474;2023-05-29T14:42:43;25.50;1.00
25933;DHT22;13731;51.166;4.474;2023-05-29T14:45:09;25.00;1.00
25933;DHT22;13731;51.166;4.474;2023-05-29T14:47:35;24.40;1.00
25933;DHT22;13731;51.166;4.474;2023-05-29T14:50:00;23.90;1.00
25933;DHT22;13731;51.166;4.474;2023-05-29T14:52:26;24.30;1.00
25933;DHT22;13731;51.166;4.474;2023-05-29T14:54:52;24.00;1.00
25933;DHT22;13731;51.166;4.474;2023-05-29T14:57:17;24.00;1.00
25933;DHT22;13731;51.166;4.474;2023-05-29T14:59:43;23.60;1.00
25933;DHT22;13731;51.166;4.474;2023-05-29T15:02:09;24.10;1.00
25933;DHT22;13731;51.166;4.474;2023-05-29T15:04:35;24.50;1.00
25933;DHT22;13731;51.166;4.474;2023-05-29T15:07:01;26.00;1.00
25933;DHT22;13731;51.166;4.474;2023-05-29T15:09:26;26.30;1.00
25933;DHT22;13731;51.166;4.474;2023-05-29T15:11:52;26.10;1.00
25933;DHT22;13731;51.166;4.474;2023-05-29T15:14:18;26.40;1.00
25933;DHT22;13731;51.166;4.474;2023-05-29T15:16:44;25.70;1.00
25933;DHT22;13731;51.166;4.474;2023-05-29T15:19:09;25.50;1.00
25933;DHT22;13731;51.166;4.474;2023-05-29T15:21:36;26.30;1.00
25933;DHT22;13731;51.166;4.474;2023-05-29T15:24:02;26.70;1.00
25933;DHT22;13731;51.166;4.474;2023-05-29T15:26:27;26.50;1.00
25933;DHT22;13731;51.166;4.474;2023-05-29T15:28:53;25.80;1.00
25933;DHT22;13731;51.166;4.474;2023-05-29T15:31:19;25.30;1.00
25933;DHT22;13731;51.166;4.474;2023-05-29T15:33:48;25.20;1.00
25933;DHT22;13731;51.166;4.474;2023-05-29T15:36:14;25.20;1.00
25933;DHT22;13731;51.166;4.474;2023-05-29T15:38:41;24.60;1.00
25933;DHT22;13731;51.166;4.474;2023-05-29T15:41:07;24.50;1.00
25933;DHT22;13731;51.166;4.474;2023-05-29T15:43:32;24.80;1.00
25933;DHT22;13731;51.166;4.474;2023-05-29T15:45:58;24.50;1.00
25933;DHT22;13731;51.166;4.474;2023-05-29T15:48:24;25.10;1.00
25933;DHT22;13731;51.166;4.474;2023-05-29T15:50:50;25.70;1.00
25933;DHT22;13731;51.166;4.474;2023-05-29T15:53:15;24.70;1.00
25933;DHT22;13731;51.166;4.474;2023-05-29T15:55:41;24.90;1.00
25933;DHT22;13731;51.166;4.474;2023-05-29T15:58:08;25.60;1.00
25933;DHT22;13731;51.166;4.474;2023-05-29T16:00:34;25.70;1.00
25933;DHT22;13731;51.166;4.474;2023-05-29T16:02:59;25.60;1.00
25933;DHT22;13731;51.166;4.474;2023-05-29T16:05:26;25.00;1.00
25933;DHT22;13731;51.166;4.474;2023-05-29T16:07:53;25.70;1.00
25933;DHT22;13731;51.166;4.474;2023-05-29T16:10:19;25.80;1.00
25933;DHT22;13731;51.166;4.474;2023-05-29T16:12:45;24.90;1.00